sensor_id;sensor_type;location;lat;lon;timestamp;P1;durP1;ratioP1;P2;durP2;ratioP2
18574;SDS011;9417;16.484;102.872;2022-11-15T00:02:15;19.23;;;12.48;;
18574;SDS011;9417;16.484;102.872;2022-11-15T00:04:35;16.73;;;11.75;;
18574;SDS011;9417;16.484;102.872;2022-11-15T00:06:54;22.45;;;12.60;;
18574;SDS011;9417;16.484;102.872;2022-11-15T00:09:14;18.30;;;12.10;;
18574;SDS011;9417;16.484;102.872;2022-11-15T00:11:33;19.42;;;12.40;;
18574;SDS011;9417;16.484;102.872;2022-11-15T00:13:56;19.63;;;13.27;;
18574;SDS011;9417;16.484;102.872;2022-11-15T00:16:18;21.58;;;13.40;;
18574;SDS011;9417;16.484;102.872;2022-11-15T00:18:37;21.05;;;14.38;;
18574;SDS011;9417;16.484;102.872;2022-11-15T00:21:04;21.13;;;13.68;;
18574;SDS011;9417;16.484;102.872;2022-11-15T00:23:25;24.48;;;14.60;;
18574;SDS011;9417;16.484;102.872;2022-11-15T00:25:45;19.00;;;13.25;;
18574;SDS011;9417;16.484;102.872;2022-11-15T00:28:04;20.55;;;13.32;;
18574;SDS011;9417;16.484;102.872;2022-11-15T00:30:26;25.05;;;13.23;;
18574;SDS011;9417;16.484;102.872;2022-11-15T00:32:46;21.40;;;13.48;;
18574;SDS011;9417;16.484;102.872;2022-11-15T00:35:05;23.13;;;14.18;;
18574;SDS011;9417;16.484;102.872;2022-11-15T00:37:25;21.55;;;12.60;;
18574;SDS011;9417;16.484;102.872;2022-11-15T00:39:45;16.38;;;10.35;;
18574;SDS011;9417;16.484;102.872;2022-11-15T00:42:04;16.90;;;10.90;;
18574;SDS011;9417;16.484;102.872;2022-11-15T00:44:24;14.95;;;9.45;;
18574;SDS011;9417;16.484;102.872;2022-11-15T00:46:44;13.68;;;9.65;;
18574;SDS011;9417;16.484;102.872;2022-11-15T00:49:04;15.33;;;9.07;;
18574;SDS011;9417;16.484;102.872;2022-11-15T00:51:23;11.30;;;7.90;;
18574;SDS011;9417;16.484;102.872;2022-11-15T00:53:43;12.60;;;8.00;;
18574;SDS011;9417;16.484;102.872;2022-11-15T00:56:02;9.68;;;7.60;;
18574;SDS011;9417;16.484;102.872;2022-11-15T00:58:22;12.38;;;6.47;;
18574;SDS011;9417;16.484;102.872;2022-11-15T01:00:43;11.57;;;7.28;;
18574;SDS011;9417;16.484;102.872;2022-11-15T01:03:05;11.48;;;7.18;;
18574;SDS011;9417;16.484;102.872;2022-11-15T01:05:24;8.53;;;5.63;;
18574;SDS011;9417;16.484;102.872;2022-11-15T01:07:44;7.35;;;5.40;;
18574;SDS011;9417;16.484;102.872;2022-11-15T01:10:03;6.90;;;4.50;;
18574;SDS011;9417;16.484;102.872;2022-11-15T01:12:24;8.93;;;4.72;;
18574;SDS011;9417;16.484;102.872;2022-11-15T01:14:43;6.90;;;4.40;;
18574;SDS011;9417;16.484;102.872;2022-11-15T01:17:03;8.23;;;4.47;;
18574;SDS011;9417;16.484;102.872;2022-11-15T01:19:24;7.85;;;4.85;;
18574;SDS011;9417;16.484;102.872;2022-11-15T01:21:43;6.40;;;3.80;;
18574;SDS011;9417;16.484;102.872;2022-11-15T01:24:03;9.27;;;4.45;;
18574;SDS011;9417;16.484;102.872;2022-11-15T01:26:23;7.20;;;4.20;;
18574;SDS011;9417;16.484;102.872;2022-11-15T01:28:43;6.50;;;4.38;;
18574;SDS011;9417;16.484;102.872;2022-11-15T01:31:03;5.97;;;4.20;;
18574;SDS011;9417;16.484;102.872;2022-11-15T01:33:24;7.45;;;4.10;;
18574;SDS011;9417;16.484;102.872;2022-11-15T01:35:45;5.43;;;4.05;;
18574;SDS011;9417;16.484;102.872;2022-11-15T01:38:05;6.10;;;3.63;;
18574;SDS011;9417;16.484;102.872;2022-11-15T01:40:24;5.85;;;3.90;;
18574;SDS011;9417;16.484;102.872;2022-11-15T01:42:43;5.43;;;3.85;;
18574;SDS011;9417;16.484;102.872;2022-11-15T01:45:03;6.35;;;4.20;;
18574;SDS011;9417;16.484;102.872;2022-11-15T01:47:24;5.75;;;3.88;;
18574;SDS011;9417;16.484;102.872;2022-11-15T01:49:49;5.88;;;3.65;;
18574;SDS011;9417;16.484;102.872;2022-11-15T01:52:14;6.18;;;3.92;;
18574;SDS011;9417;16.484;102.872;2022-11-15T01:54:37;7.63;;;3.97;;
18574;SDS011;9417;16.484;102.872;2022-11-15T01:57:00;5.95;;;4.25;;
18574;SDS011;9417;16.484;102.872;2022-11-15T01:59:22;5.85;;;3.47;;
18574;SDS011;9417;16.484;102.872;2022-11-15T02:01:42;5.47;;;3.90;;
18574;SDS011;9417;16.484;102.872;2022-11-15T02:04:04;6.28;;;4.07;;
18574;SDS011;9417;16.484;102.872;2022-11-15T02:06:27;6.22;;;3.67;;
18574;SDS011;9417;16.484;102.872;2022-11-15T02:08:49;6.40;;;3.90;;
18574;SDS011;9417;16.484;102.872;2022-11-15T02:11:08;6.65;;;3.92;;
18574;SDS011;9417;16.484;102.872;2022-11-15T02:13:28;4.80;;;3.58;;
18574;SDS011;9417;16.484;102.872;2022-11-15T02:15:49;6.05;;;3.80;;
18574;SDS011;9417;16.484;102.872;2022-11-15T02:18:18;7.47;;;3.95;;
18574;SDS011;9417;16.484;102.872;2022-11-15T02:20:56;6.38;;;3.88;;
18574;SDS011;9417;16.484;102.872;2022-11-15T02:23:38;7.30;;;3.30;;
18574;SDS011;9417;16.484;102.872;2022-11-15T02:26:27;6.15;;;4.13;;
18574;SDS011;9417;16.484;102.872;2022-11-15T02:29:15;6.50;;;3.67;;
18574;SDS011;9417;16.484;102.872;2022-11-15T02:31:48;4.83;;;3.53;;
18574;SDS011;9417;16.484;102.872;2022-11-15T02:34:16;5.72;;;3.70;;
18574;SDS011;9417;16.484;102.872;2022-11-15T02:36:43;4.57;;;3.40;;
18574;SDS011;9417;16.484;102.872;2022-11-15T02:39:08;4.10;;;3.08;;
18574;SDS011;9417;16.484;102.872;2022-11-15T02:41:37;5.85;;;3.72;;
18574;SDS011;9417;16.484;102.872;2022-11-15T02:44:04;5.18;;;3.22;;
18574;SDS011;9417;16.484;102.872;2022-11-15T02:46:32;4.30;;;3.40;;
18574;SDS011;9417;16.484;102.872;2022-11-15T02:49:12;6.80;;;3.53;;
18574;SDS011;9417;16.484;102.872;2022-11-15T02:51:33;4.90;;;3.03;;
18574;SDS011;9417;16.484;102.872;2022-11-15T02:53:52;4.90;;;2.95;;
18574;SDS011;9417;16.484;102.872;2022-11-15T02:56:12;6.10;;;3.15;;
18574;SDS011;9417;16.484;102.872;2022-11-15T03:01:33;3.95;;;2.67;;
18574;SDS011;9417;16.484;102.872;2022-11-15T03:04:04;5.65;;;3.55;;
18574;SDS011;9417;16.484;102.872;2022-11-15T03:06:34;5.43;;;3.72;;
18574;SDS011;9417;16.484;102.872;2022-11-15T03:09:01;5.03;;;3.13;;
18574;SDS011;9417;16.484;102.872;2022-11-15T03:11:25;5.03;;;3.25;;
18574;SDS011;9417;16.484;102.872;2022-11-15T03:13:46;6.35;;;3.20;;
18574;SDS011;9417;16.484;102.872;2022-11-15T03:16:11;5.25;;;3.20;;
18574;SDS011;9417;16.484;102.872;2022-11-15T03:18:36;4.97;;;2.67;;
18574;SDS011;9417;16.484;102.872;2022-11-15T03:20:58;5.00;;;2.80;;
18574;SDS011;9417;16.484;102.872;2022-11-15T03:23:24;7.97;;;3.10;;
18574;SDS011;9417;16.484;102.872;2022-11-15T03:25:45;3.53;;;2.47;;
18574;SDS011;9417;16.484;102.872;2022-11-15T03:28:07;4.28;;;2.53;;
18574;SDS011;9417;16.484;102.872;2022-11-15T03:30:30;4.80;;;2.80;;
18574;SDS011;9417;16.484;102.872;2022-11-15T03:35:13;4.32;;;2.83;;
18574;SDS011;9417;16.484;102.872;2022-11-15T03:37:35;7.15;;;3.22;;
18574;SDS011;9417;16.484;102.872;2022-11-15T03:40:00;4.32;;;2.60;;
18574;SDS011;9417;16.484;102.872;2022-11-15T03:42:22;4.35;;;2.60;;
18574;SDS011;9417;16.484;102.872;2022-11-15T03:44:50;2.92;;;2.30;;
18574;SDS011;9417;16.484;102.872;2022-11-15T03:47:15;3.85;;;2.47;;
18574;SDS011;9417;16.484;102.872;2022-11-15T03:49:38;4.03;;;2.33;;
18574;SDS011;9417;16.484;102.872;2022-11-15T03:52:02;4.32;;;2.33;;
18574;SDS011;9417;16.484;102.872;2022-11-15T03:54:22;3.85;;;2.42;;
18574;SDS011;9417;16.484;102.872;2022-11-15T03:56:44;4.07;;;2.60;;
18574;SDS011;9417;16.484;102.872;2022-11-15T03:59:03;4.05;;;2.25;;
18574;SDS011;9417;16.484;102.872;2022-11-15T04:01:23;3.50;;;2.28;;
18574;SDS011;9417;16.484;102.872;2022-11-15T04:03:42;3.72;;;2.17;;
18574;SDS011;9417;16.484;102.872;2022-11-15T04:06:01;3.28;;;2.58;;
18574;SDS011;9417;16.484;102.872;2022-11-15T04:08:21;4.43;;;2.55;;
18574;SDS011;9417;16.484;102.872;2022-11-15T04:10:40;2.78;;;2.08;;
18574;SDS011;9417;16.484;102.872;2022-11-15T04:13:02;4.45;;;2.35;;
18574;SDS011;9417;16.484;102.872;2022-11-15T04:15:22;3.20;;;2.07;;
18574;SDS011;9417;16.484;102.872;2022-11-15T04:17:42;2.50;;;2.08;;
18574;SDS011;9417;16.484;102.872;2022-11-15T04:22:39;4.05;;;2.25;;
18574;SDS011;9417;16.484;102.872;2022-11-15T04:25:15;4.07;;;2.30;;
18574;SDS011;9417;16.484;102.872;2022-11-15T04:27:38;3.90;;;2.10;;
18574;SDS011;9417;16.484;102.872;2022-11-15T04:29:59;3.35;;;2.30;;
18574;SDS011;9417;16.484;102.872;2022-11-15T04:32:19;3.30;;;1.95;;
18574;SDS011;9417;16.484;102.872;2022-11-15T04:34:38;4.78;;;2.10;;
18574;SDS011;9417;16.484;102.872;2022-11-15T04:36:58;3.47;;;2.10;;
18574;SDS011;9417;16.484;102.872;2022-11-15T04:39:28;4.65;;;2.53;;
18574;SDS011;9417;16.484;102.872;2022-11-15T04:41:47;4.55;;;2.00;;
18574;SDS011;9417;16.484;102.872;2022-11-15T04:44:07;2.22;;;1.85;;
18574;SDS011;9417;16.484;102.872;2022-11-15T04:46:28;3.70;;;2.05;;
18574;SDS011;9417;16.484;102.872;2022-11-15T04:48:48;3.67;;;2.38;;
18574;SDS011;9417;16.484;102.872;2022-11-15T04:51:12;4.35;;;2.22;;
18574;SDS011;9417;16.484;102.872;2022-11-15T04:53:32;4.28;;;2.25;;
18574;SDS011;9417;16.484;102.872;2022-11-15T04:55:51;4.63;;;2.40;;
18574;SDS011;9417;16.484;102.872;2022-11-15T04:58:11;4.50;;;2.10;;
18574;SDS011;9417;16.484;102.872;2022-11-15T05:00:30;2.67;;;1.92;;
18574;SDS011;9417;16.484;102.872;2022-11-15T05:02:52;4.28;;;2.38;;
18574;SDS011;9417;16.484;102.872;2022-11-15T05:05:28;3.90;;;2.20;;
18574;SDS011;9417;16.484;102.872;2022-11-15T05:07:47;2.65;;;2.05;;
18574;SDS011;9417;16.484;102.872;2022-11-15T05:10:07;3.42;;;2.13;;
18574;SDS011;9417;16.484;102.872;2022-11-15T05:12:27;3.75;;;2.00;;
18574;SDS011;9417;16.484;102.872;2022-11-15T05:14:46;4.65;;;2.38;;
18574;SDS011;9417;16.484;102.872;2022-11-15T05:17:06;4.22;;;2.25;;
18574;SDS011;9417;16.484;102.872;2022-11-15T05:19:27;4.15;;;2.15;;
18574;SDS011;9417;16.484;102.872;2022-11-15T05:21:47;3.77;;;2.17;;
18574;SDS011;9417;16.484;102.872;2022-11-15T05:24:08;5.40;;;2.03;;
18574;SDS011;9417;16.484;102.872;2022-11-15T05:26:29;4.22;;;1.92;;
18574;SDS011;9417;16.484;102.872;2022-11-15T05:28:51;3.40;;;2.20;;
18574;SDS011;9417;16.484;102.872;2022-11-15T05:31:12;3.00;;;1.95;;
18574;SDS011;9417;16.484;102.872;2022-11-15T05:35:54;4.05;;;1.77;;
18574;SDS011;9417;16.484;102.872;2022-11-15T05:38:17;4.30;;;2.20;;
18574;SDS011;9417;16.484;102.872;2022-11-15T05:40:37;2.45;;;1.90;;
18574;SDS011;9417;16.484;102.872;2022-11-15T05:42:56;4.00;;;2.10;;
18574;SDS011;9417;16.484;102.872;2022-11-15T05:45:18;3.42;;;1.85;;
18574;SDS011;9417;16.484;102.872;2022-11-15T05:47:41;3.40;;;2.20;;
18574;SDS011;9417;16.484;102.872;2022-11-15T05:50:02;3.90;;;2.17;;
18574;SDS011;9417;16.484;102.872;2022-11-15T05:52:24;4.40;;;2.30;;
18574;SDS011;9417;16.484;102.872;2022-11-15T05:54:48;2.88;;;2.05;;
18574;SDS011;9417;16.484;102.872;2022-11-15T05:57:08;4.65;;;2.33;;
18574;SDS011;9417;16.484;102.872;2022-11-15T05:59:28;5.03;;;2.20;;
18574;SDS011;9417;16.484;102.872;2022-11-15T06:01:48;3.90;;;2.30;;
18574;SDS011;9417;16.484;102.872;2022-11-15T06:04:08;3.88;;;2.45;;
18574;SDS011;9417;16.484;102.872;2022-11-15T06:06:27;2.83;;;2.10;;
18574;SDS011;9417;16.484;102.872;2022-11-15T06:08:49;2.90;;;1.92;;
18574;SDS011;9417;16.484;102.872;2022-11-15T06:11:08;5.13;;;2.20;;
18574;SDS011;9417;16.484;102.872;2022-11-15T06:13:28;3.38;;;2.20;;
18574;SDS011;9417;16.484;102.872;2022-11-15T06:15:47;3.30;;;2.08;;
18574;SDS011;9417;16.484;102.872;2022-11-15T06:18:07;2.83;;;2.20;;
18574;SDS011;9417;16.484;102.872;2022-11-15T06:20:27;4.80;;;2.05;;
18574;SDS011;9417;16.484;102.872;2022-11-15T06:22:47;4.25;;;2.30;;
18574;SDS011;9417;16.484;102.872;2022-11-15T06:25:08;4.75;;;2.28;;
18574;SDS011;9417;16.484;102.872;2022-11-15T06:27:27;3.60;;;2.20;;
18574;SDS011;9417;16.484;102.872;2022-11-15T06:29:47;3.35;;;2.30;;
18574;SDS011;9417;16.484;102.872;2022-11-15T06:32:07;6.00;;;2.58;;
18574;SDS011;9417;16.484;102.872;2022-11-15T06:34:26;3.92;;;2.22;;
18574;SDS011;9417;16.484;102.872;2022-11-15T06:36:45;4.80;;;2.40;;
18574;SDS011;9417;16.484;102.872;2022-11-15T06:39:05;3.67;;;2.40;;
18574;SDS011;9417;16.484;102.872;2022-11-15T06:41:26;3.35;;;1.98;;
18574;SDS011;9417;16.484;102.872;2022-11-15T06:43:45;3.50;;;2.30;;
18574;SDS011;9417;16.484;102.872;2022-11-15T06:46:05;4.10;;;2.15;;
18574;SDS011;9417;16.484;102.872;2022-11-15T06:48:25;5.10;;;2.45;;
18574;SDS011;9417;16.484;102.872;2022-11-15T06:50:50;4.82;;;2.33;;
18574;SDS011;9417;16.484;102.872;2022-11-15T06:53:09;5.35;;;2.30;;
18574;SDS011;9417;16.484;102.872;2022-11-15T06:55:29;3.72;;;2.10;;
18574;SDS011;9417;16.484;102.872;2022-11-15T06:57:50;2.97;;;2.00;;
18574;SDS011;9417;16.484;102.872;2022-11-15T07:02:29;2.97;;;1.90;;
18574;SDS011;9417;16.484;102.872;2022-11-15T07:04:48;2.83;;;2.13;;
18574;SDS011;9417;16.484;102.872;2022-11-15T07:07:09;3.75;;;2.13;;
18574;SDS011;9417;16.484;102.872;2022-11-15T07:09:28;3.55;;;2.45;;
18574;SDS011;9417;16.484;102.872;2022-11-15T07:11:48;3.33;;;2.35;;
18574;SDS011;9417;16.484;102.872;2022-11-15T07:14:09;3.88;;;2.15;;
18574;SDS011;9417;16.484;102.872;2022-11-15T07:16:28;3.50;;;2.28;;
18574;SDS011;9417;16.484;102.872;2022-11-15T07:18:48;4.78;;;2.08;;
18574;SDS011;9417;16.484;102.872;2022-11-15T07:21:08;3.08;;;2.17;;
18574;SDS011;9417;16.484;102.872;2022-11-15T07:23:28;3.05;;;2.40;;
18574;SDS011;9417;16.484;102.872;2022-11-15T07:25:48;4.13;;;2.33;;
18574;SDS011;9417;16.484;102.872;2022-11-15T07:28:08;4.55;;;2.35;;
18574;SDS011;9417;16.484;102.872;2022-11-15T07:30:29;2.85;;;2.05;;
18574;SDS011;9417;16.484;102.872;2022-11-15T07:32:52;3.53;;;2.10;;
18574;SDS011;9417;16.484;102.872;2022-11-15T07:35:12;2.78;;;1.83;;
18574;SDS011;9417;16.484;102.872;2022-11-15T07:37:31;3.38;;;2.25;;
18574;SDS011;9417;16.484;102.872;2022-11-15T07:39:51;3.90;;;2.30;;
18574;SDS011;9417;16.484;102.872;2022-11-15T07:42:10;3.10;;;1.98;;
18574;SDS011;9417;16.484;102.872;2022-11-15T07:44:46;2.88;;;2.08;;
18574;SDS011;9417;16.484;102.872;2022-11-15T07:47:07;3.72;;;2.10;;
18574;SDS011;9417;16.484;102.872;2022-11-15T07:49:26;5.03;;;2.53;;
18574;SDS011;9417;16.484;102.872;2022-11-15T07:51:45;3.22;;;1.90;;
18574;SDS011;9417;16.484;102.872;2022-11-15T07:54:05;5.68;;;2.45;;
18574;SDS011;9417;16.484;102.872;2022-11-15T07:56:24;4.25;;;2.20;;
18574;SDS011;9417;16.484;102.872;2022-11-15T07:58:45;4.55;;;2.03;;
18574;SDS011;9417;16.484;102.872;2022-11-15T08:01:05;3.30;;;1.98;;
18574;SDS011;9417;16.484;102.872;2022-11-15T08:03:28;2.97;;;1.90;;
18574;SDS011;9417;16.484;102.872;2022-11-15T08:05:50;4.63;;;2.00;;
18574;SDS011;9417;16.484;102.872;2022-11-15T08:08:10;2.78;;;1.90;;
18574;SDS011;9417;16.484;102.872;2022-11-15T08:10:29;4.88;;;2.55;;
18574;SDS011;9417;16.484;102.872;2022-11-15T08:12:58;3.30;;;1.98;;
18574;SDS011;9417;16.484;102.872;2022-11-15T08:15:18;3.55;;;2.10;;
18574;SDS011;9417;16.484;102.872;2022-11-15T08:17:37;1.92;;;1.60;;
18574;SDS011;9417;16.484;102.872;2022-11-15T08:19:58;3.30;;;1.80;;
18574;SDS011;9417;16.484;102.872;2022-11-15T08:22:19;3.47;;;1.73;;
18574;SDS011;9417;16.484;102.872;2022-11-15T08:24:39;3.83;;;2.05;;
18574;SDS011;9417;16.484;102.872;2022-11-15T08:26:59;3.47;;;2.10;;
18574;SDS011;9417;16.484;102.872;2022-11-15T08:29:18;5.50;;;2.20;;
18574;SDS011;9417;16.484;102.872;2022-11-15T08:31:38;3.65;;;1.90;;
18574;SDS011;9417;16.484;102.872;2022-11-15T08:33:58;3.42;;;2.13;;
18574;SDS011;9417;16.484;102.872;2022-11-15T08:36:19;4.00;;;1.95;;
18574;SDS011;9417;16.484;102.872;2022-11-15T08:38:39;3.63;;;2.07;;
18574;SDS011;9417;16.484;102.872;2022-11-15T08:41:00;3.88;;;2.00;;
18574;SDS011;9417;16.484;102.872;2022-11-15T08:43:21;3.00;;;1.92;;
18574;SDS011;9417;16.484;102.872;2022-11-15T08:45:41;5.07;;;2.47;;
18574;SDS011;9417;16.484;102.872;2022-11-15T08:48:01;3.45;;;1.98;;
18574;SDS011;9417;16.484;102.872;2022-11-15T08:50:22;3.55;;;1.80;;
18574;SDS011;9417;16.484;102.872;2022-11-15T08:52:43;3.10;;;1.85;;
18574;SDS011;9417;16.484;102.872;2022-11-15T08:55:03;4.05;;;1.60;;
18574;SDS011;9417;16.484;102.872;2022-11-15T08:57:24;3.53;;;1.77;;
18574;SDS011;9417;16.484;102.872;2022-11-15T08:59:46;4.05;;;1.95;;
18574;SDS011;9417;16.484;102.872;2022-11-15T09:02:06;2.63;;;1.75;;
18574;SDS011;9417;16.484;102.872;2022-11-15T09:04:29;2.90;;;2.00;;
18574;SDS011;9417;16.484;102.872;2022-11-15T09:06:49;2.70;;;1.92;;
18574;SDS011;9417;16.484;102.872;2022-11-15T09:09:10;4.55;;;2.17;;
18574;SDS011;9417;16.484;102.872;2022-11-15T09:11:29;3.58;;;2.00;;
18574;SDS011;9417;16.484;102.872;2022-11-15T09:13:49;4.22;;;2.05;;
18574;SDS011;9417;16.484;102.872;2022-11-15T09:16:08;5.53;;;2.00;;
18574;SDS011;9417;16.484;102.872;2022-11-15T09:18:28;3.33;;;1.90;;
18574;SDS011;9417;16.484;102.872;2022-11-15T09:20:48;3.30;;;1.88;;
18574;SDS011;9417;16.484;102.872;2022-11-15T09:23:08;4.70;;;2.25;;
18574;SDS011;9417;16.484;102.872;2022-11-15T09:25:29;3.55;;;2.00;;
18574;SDS011;9417;16.484;102.872;2022-11-15T09:27:49;3.08;;;1.98;;
18574;SDS011;9417;16.484;102.872;2022-11-15T09:30:09;3.50;;;1.88;;
18574;SDS011;9417;16.484;102.872;2022-11-15T09:32:29;3.38;;;1.80;;
18574;SDS011;9417;16.484;102.872;2022-11-15T09:34:53;2.83;;;1.73;;
18574;SDS011;9417;16.484;102.872;2022-11-15T09:37:12;3.45;;;1.90;;
18574;SDS011;9417;16.484;102.872;2022-11-15T09:39:32;2.72;;;1.70;;
18574;SDS011;9417;16.484;102.872;2022-11-15T09:41:58;3.40;;;2.00;;
18574;SDS011;9417;16.484;102.872;2022-11-15T09:44:41;3.35;;;2.08;;
18574;SDS011;9417;16.484;102.872;2022-11-15T09:47:25;3.00;;;1.90;;
18574;SDS011;9417;16.484;102.872;2022-11-15T09:50:07;4.40;;;2.10;;
18574;SDS011;9417;16.484;102.872;2022-11-15T09:52:16;3.80;;;1.98;;
18574;SDS011;9417;16.484;102.872;2022-11-15T09:54:26;3.20;;;1.80;;
18574;SDS011;9417;16.484;102.872;2022-11-15T09:57:03;2.55;;;1.50;;
18574;SDS011;9417;16.484;102.872;2022-11-15T09:59:21;2.42;;;1.85;;
18574;SDS011;9417;16.484;102.872;2022-11-15T10:01:38;2.85;;;1.70;;
18574;SDS011;9417;16.484;102.872;2022-11-15T10:03:50;3.50;;;1.80;;
18574;SDS011;9417;16.484;102.872;2022-11-15T10:06:03;5.50;;;2.25;;
18574;SDS011;9417;16.484;102.872;2022-11-15T10:08:24;2.58;;;2.10;;
18574;SDS011;9417;16.484;102.872;2022-11-15T10:10:40;6.25;;;2.05;;
18574;SDS011;9417;16.484;102.872;2022-11-15T10:12:52;4.60;;;1.95;;
18574;SDS011;9417;16.484;102.872;2022-11-15T10:15:02;3.60;;;2.08;;
18574;SDS011;9417;16.484;102.872;2022-11-15T10:17:23;3.05;;;2.00;;
18574;SDS011;9417;16.484;102.872;2022-11-15T10:19:47;3.92;;;2.10;;
18574;SDS011;9417;16.484;102.872;2022-11-15T10:22:18;3.53;;;2.20;;
18574;SDS011;9417;16.484;102.872;2022-11-15T10:24:33;5.25;;;2.70;;
18574;SDS011;9417;16.484;102.872;2022-11-15T10:26:46;3.55;;;2.15;;
18574;SDS011;9417;16.484;102.872;2022-11-15T10:28:56;5.97;;;2.38;;
18574;SDS011;9417;16.484;102.872;2022-11-15T10:31:10;4.30;;;2.65;;
18574;SDS011;9417;16.484;102.872;2022-11-15T10:33:30;5.93;;;2.42;;
18574;SDS011;9417;16.484;102.872;2022-11-15T10:35:41;5.05;;;2.67;;
18574;SDS011;9417;16.484;102.872;2022-11-15T10:37:48;3.60;;;2.50;;
18574;SDS011;9417;16.484;102.872;2022-11-15T10:40:05;4.35;;;2.47;;
18574;SDS011;9417;16.484;102.872;2022-11-15T10:42:25;4.75;;;2.33;;
18574;SDS011;9417;16.484;102.872;2022-11-15T10:44:35;5.32;;;2.72;;
18574;SDS011;9417;16.484;102.872;2022-11-15T10:47:03;7.07;;;2.78;;
18574;SDS011;9417;16.484;102.872;2022-11-15T10:49:22;3.15;;;2.13;;
18574;SDS011;9417;16.484;102.872;2022-11-15T10:51:32;5.82;;;2.28;;
18574;SDS011;9417;16.484;102.872;2022-11-15T10:53:46;5.53;;;2.60;;
18574;SDS011;9417;16.484;102.872;2022-11-15T10:55:55;5.00;;;2.90;;
18574;SDS011;9417;16.484;102.872;2022-11-15T10:58:06;6.50;;;2.47;;
18574;SDS011;9417;16.484;102.872;2022-11-15T11:00:29;6.03;;;2.45;;
18574;SDS011;9417;16.484;102.872;2022-11-15T11:02:39;4.55;;;2.95;;
18574;SDS011;9417;16.484;102.872;2022-11-15T11:04:51;5.63;;;3.30;;
18574;SDS011;9417;16.484;102.872;2022-11-15T11:06:58;6.57;;;3.40;;
18574;SDS011;9417;16.484;102.872;2022-11-15T11:09:08;5.35;;;3.33;;
18574;SDS011;9417;16.484;102.872;2022-11-15T11:11:43;7.78;;;3.05;;
18574;SDS011;9417;16.484;102.872;2022-11-15T11:13:52;7.63;;;3.30;;
18574;SDS011;9417;16.484;102.872;2022-11-15T11:16:09;7.50;;;3.28;;
18574;SDS011;9417;16.484;102.872;2022-11-15T11:18:27;7.05;;;4.30;;
18574;SDS011;9417;16.484;102.872;2022-11-15T11:20:39;8.27;;;4.55;;
18574;SDS011;9417;16.484;102.872;2022-11-15T11:25:07;8.20;;;4.47;;
18574;SDS011;9417;16.484;102.872;2022-11-15T11:27:26;11.32;;;6.28;;
18574;SDS011;9417;16.484;102.872;2022-11-15T11:29:46;8.57;;;5.68;;
18574;SDS011;9417;16.484;102.872;2022-11-15T11:32:09;14.65;;;6.93;;
18574;SDS011;9417;16.484;102.872;2022-11-15T11:34:36;9.50;;;6.15;;
18574;SDS011;9417;16.484;102.872;2022-11-15T11:36:55;13.57;;;6.32;;
18574;SDS011;9417;16.484;102.872;2022-11-15T11:39:17;11.02;;;6.55;;
18574;SDS011;9417;16.484;102.872;2022-11-15T11:41:43;11.15;;;6.65;;
18574;SDS011;9417;16.484;102.872;2022-11-15T11:44:04;11.95;;;6.30;;
18574;SDS011;9417;16.484;102.872;2022-11-15T11:46:34;11.73;;;7.05;;
18574;SDS011;9417;16.484;102.872;2022-11-15T11:48:58;12.70;;;6.95;;
18574;SDS011;9417;16.484;102.872;2022-11-15T11:51:12;12.85;;;8.60;;
18574;SDS011;9417;16.484;102.872;2022-11-15T11:53:25;15.93;;;8.75;;
18574;SDS011;9417;16.484;102.872;2022-11-15T11:55:37;15.25;;;7.40;;
18574;SDS011;9417;16.484;102.872;2022-11-15T11:57:48;11.18;;;7.53;;
18574;SDS011;9417;16.484;102.872;2022-11-15T12:00:03;15.80;;;9.73;;
18574;SDS011;9417;16.484;102.872;2022-11-15T12:02:18;15.75;;;9.25;;
18574;SDS011;9417;16.484;102.872;2022-11-15T12:04:36;16.27;;;8.15;;
18574;SDS011;9417;16.484;102.872;2022-11-15T12:06:49;15.52;;;8.30;;
18574;SDS011;9417;16.484;102.872;2022-11-15T12:09:02;14.27;;;8.35;;
18574;SDS011;9417;16.484;102.872;2022-11-15T12:11:17;14.82;;;8.88;;
18574;SDS011;9417;16.484;102.872;2022-11-15T12:13:32;13.98;;;8.90;;
18574;SDS011;9417;16.484;102.872;2022-11-15T12:15:42;16.58;;;9.02;;
18574;SDS011;9417;16.484;102.872;2022-11-15T12:17:54;14.50;;;8.90;;
18574;SDS011;9417;16.484;102.872;2022-11-15T12:20:06;15.23;;;8.80;;
18574;SDS011;9417;16.484;102.872;2022-11-15T12:22:23;14.95;;;9.30;;
18574;SDS011;9417;16.484;102.872;2022-11-15T12:24:39;14.00;;;9.45;;
18574;SDS011;9417;16.484;102.872;2022-11-15T12:26:50;18.58;;;10.00;;
18574;SDS011;9417;16.484;102.872;2022-11-15T12:29:03;20.52;;;12.55;;
18574;SDS011;9417;16.484;102.872;2022-11-15T12:31:16;15.90;;;10.15;;
18574;SDS011;9417;16.484;102.872;2022-11-15T12:33:32;17.27;;;10.13;;
18574;SDS011;9417;16.484;102.872;2022-11-15T12:35:44;15.82;;;9.50;;
18574;SDS011;9417;16.484;102.872;2022-11-15T12:38:08;18.92;;;9.60;;
18574;SDS011;9417;16.484;102.872;2022-11-15T12:40:17;18.02;;;9.38;;
18574;SDS011;9417;16.484;102.872;2022-11-15T12:45:47;11.32;;;8.85;;
18574;SDS011;9417;16.484;102.872;2022-11-15T12:47:55;16.48;;;9.48;;
18574;SDS011;9417;16.484;102.872;2022-11-15T12:55:36;16.75;;;8.88;;
18574;SDS011;9417;16.484;102.872;2022-11-15T12:57:44;14.05;;;8.57;;
18574;SDS011;9417;16.484;102.872;2022-11-15T12:59:52;14.40;;;9.82;;
18574;SDS011;9417;16.484;102.872;2022-11-15T13:02:01;14.30;;;9.27;;
18574;SDS011;9417;16.484;102.872;2022-11-15T13:04:27;14.98;;;9.95;;
18574;SDS011;9417;16.484;102.872;2022-11-15T13:06:41;15.20;;;8.65;;
18574;SDS011;9417;16.484;102.872;2022-11-15T13:08:50;12.30;;;9.02;;
18574;SDS011;9417;16.484;102.872;2022-11-15T13:10:57;14.85;;;8.98;;
18574;SDS011;9417;16.484;102.872;2022-11-15T13:13:42;17.42;;;9.32;;
18574;SDS011;9417;16.484;102.872;2022-11-15T13:15:54;18.92;;;11.85;;
18574;SDS011;9417;16.484;102.872;2022-11-15T13:18:26;18.65;;;10.48;;
18574;SDS011;9417;16.484;102.872;2022-11-15T13:20:44;15.65;;;9.88;;
18574;SDS011;9417;16.484;102.872;2022-11-15T13:22:58;12.35;;;8.18;;
18574;SDS011;9417;16.484;102.872;2022-11-15T13:25:14;19.48;;;10.55;;
18574;SDS011;9417;16.484;102.872;2022-11-15T13:27:24;21.33;;;11.48;;
18574;SDS011;9417;16.484;102.872;2022-11-15T13:29:31;19.23;;;10.40;;
18574;SDS011;9417;16.484;102.872;2022-11-15T13:31:40;19.75;;;10.43;;
18574;SDS011;9417;16.484;102.872;2022-11-15T13:33:48;16.25;;;9.60;;
18574;SDS011;9417;16.484;102.872;2022-11-15T13:35:57;25.25;;;10.77;;
18574;SDS011;9417;16.484;102.872;2022-11-15T13:38:11;26.02;;;12.73;;
18574;SDS011;9417;16.484;102.872;2022-11-15T13:40:34;24.67;;;12.00;;
18574;SDS011;9417;16.484;102.872;2022-11-15T13:42:42;26.83;;;11.43;;
18574;SDS011;9417;16.484;102.872;2022-11-15T13:44:56;24.88;;;11.55;;
18574;SDS011;9417;16.484;102.872;2022-11-15T13:47:05;24.27;;;11.43;;
18574;SDS011;9417;16.484;102.872;2022-11-15T13:49:13;22.98;;;12.07;;
18574;SDS011;9417;16.484;102.872;2022-11-15T13:51:22;21.88;;;10.35;;
18574;SDS011;9417;16.484;102.872;2022-11-15T13:53:35;21.90;;;9.38;;
18574;SDS011;9417;16.484;102.872;2022-11-15T13:55:45;17.92;;;9.05;;
18574;SDS011;9417;16.484;102.872;2022-11-15T13:57:53;19.13;;;8.27;;
18574;SDS011;9417;16.484;102.872;2022-11-15T14:00:03;14.80;;;7.70;;
18574;SDS011;9417;16.484;102.872;2022-11-15T14:02:16;15.98;;;7.90;;
18574;SDS011;9417;16.484;102.872;2022-11-15T14:04:26;16.25;;;7.40;;
18574;SDS011;9417;16.484;102.872;2022-11-15T14:06:42;11.00;;;6.85;;
18574;SDS011;9417;16.484;102.872;2022-11-15T14:09:00;8.43;;;4.75;;
18574;SDS011;9417;16.484;102.872;2022-11-15T14:11:29;9.75;;;4.90;;